Kambalda/Lake Lefroy, Australia
Current Conditions -  °F | °C
As of 10:00 PM on Tuesday 21 Oct 2014 (Local Time) from YPKG Reporting Station
Clear Clear  
Wind Chill: 66°   Ceiling: Unl
Heat Index: 66°   Visibility: 6mi
Dew Point: 52°   Wind: 6mph
Humidity: 60%   Direction: 140°SE
Pressure: 30.18"   Gusts: NA
Location:  31.17°S, 121.62°E
Report Text: YPKG 211400Z AUTO 14005KT 9999 // NCD 19/11 Q1022
Loading
Personal Weather Stations






























Interactive Weather Map
Tropical Storm Tracking
New forecast layout! Learn more

10-Day Weather Forecast

Advertisements
Track Severe Weather on mobile